sensor_id;sensor_type;location;lat;lon;timestamp;pressure;altitude;pressure_sealevel;temperature;humidity
24858;BME280;12935;50.782;6.074;2024-02-15T00:01:30;99699.97;;;12.21;100.00
24858;BME280;12935;50.782;6.074;2024-02-15T00:03:55;99695.69;;;12.20;100.00
24858;BME280;12935;50.782;6.074;2024-02-15T00:06:20;99700.69;;;12.28;100.00
24858;BME280;12935;50.782;6.074;2024-02-15T00:08:46;99695.22;;;12.32;100.00
24858;BME280;12935;50.782;6.074;2024-02-15T00:11:11;99690.91;;;12.35;100.00
24858;BME280;12935;50.782;6.074;2024-02-15T00:13:38;99697.56;;;12.34;100.00
24858;BME280;12935;50.782;6.074;2024-02-15T00:16:04;99702.22;;;12.40;100.00
24858;BME280;12935;50.782;6.074;2024-02-15T00:18:31;99701.44;;;12.40;100.00
24858;BME280;12935;50.782;6.074;2024-02-15T00:20:56;99697.53;;;12.37;100.00
24858;BME280;12935;50.782;6.074;2024-02-15T00:23:22;99697.94;;;12.36;100.00
24858;BME280;12935;50.782;6.074;2024-02-15T00:25:47;99692.88;;;12.30;100.00
24858;BME280;12935;50.782;6.074;2024-02-15T00:28:12;99692.09;;;12.30;100.00
24858;BME280;12935;50.782;6.074;2024-02-15T00:30:38;99690.94;;;12.27;100.00
24858;BME280;12935;50.782;6.074;2024-02-15T00:33:03;99695.22;;;12.32;100.00
24858;BME280;12935;50.782;6.074;2024-02-15T00:35:29;99694.81;;;12.30;100.00
24858;BME280;12935;50.782;6.074;2024-02-15T00:37:54;99697.16;;;12.35;100.00
24858;BME280;12935;50.782;6.074;2024-02-15T00:40:19;99699.50;;;12.33;100.00
24858;BME280;12935;50.782;6.074;2024-02-15T00:42:46;99695.22;;;12.32;100.00
24858;BME280;12935;50.782;6.074;2024-02-15T00:45:11;99696.78;;;12.29;100.00
24858;BME280;12935;50.782;6.074;2024-02-15T00:47:37;99688.56;;;12.29;100.00
24858;BME280;12935;50.782;6.074;2024-02-15T00:50:03;99686.19;;;12.35;100.00
24858;BME280;12935;50.782;6.074;2024-02-15T00:52:29;99683.47;;;12.32;100.00
24858;BME280;12935;50.782;6.074;2024-02-15T00:54:56;99686.66;;;12.19;100.00
24858;BME280;12935;50.782;6.074;2024-02-15T00:57:21;99697.22;;;12.24;100.00
24858;BME280;12935;50.782;6.074;2024-02-15T00:59:46;99694.88;;;12.26;100.00
24858;BME280;12935;50.782;6.074;2024-02-15T01:02:13;99695.22;;;12.28;100.00
24858;BME280;12935;50.782;6.074;2024-02-15T01:04:38;99690.91;;;12.31;100.00
24858;BME280;12935;50.782;6.074;2024-02-15T01:07:04;99689.31;;;12.37;100.00
24858;BME280;12935;50.782;6.074;2024-02-15T01:09:29;99692.81;;;12.41;100.00
24858;BME280;12935;50.782;6.074;2024-02-15T01:11:54;99689.75;;;12.28;100.00
24858;BME280;12935;50.782;6.074;2024-02-15T01:14:20;99684.69;;;12.27;100.00
24858;BME280;12935;50.782;6.074;2024-02-15T01:16:45;99685.44;;;12.31;100.00
24858;BME280;12935;50.782;6.074;2024-02-15T01:19:11;99682.25;;;12.40;100.00
24858;BME280;12935;50.782;6.074;2024-02-15T01:21:37;99685.44;;;12.31;100.00
24858;BME280;12935;50.782;6.074;2024-02-15T01:24:02;99681.09;;;12.34;100.00
24858;BME280;12935;50.782;6.074;2024-02-15T01:26:28;99684.66;;;12.30;100.00
24858;BME280;12935;50.782;6.074;2024-02-15T01:28:54;99686.59;;;12.34;100.00
24858;BME280;12935;50.782;6.074;2024-02-15T01:31:20;99683.06;;;12.37;100.00
24858;BME280;12935;50.782;6.074;2024-02-15T01:33:45;99680.69;;;12.42;100.00
24858;BME280;12935;50.782;6.074;2024-02-15T01:36:15;99677.50;;;12.47;100.00
24858;BME280;12935;50.782;6.074;2024-02-15T01:38:41;99673.59;;;12.45;100.00
24858;BME280;12935;50.782;6.074;2024-02-15T01:41:07;99684.13;;;12.50;100.00
24858;BME280;12935;50.782;6.074;2024-02-15T01:43:33;99673.59;;;12.45;100.00
24858;BME280;12935;50.782;6.074;2024-02-15T01:45:58;99677.09;;;12.49;100.00
24858;BME280;12935;50.782;6.074;2024-02-15T01:48:27;99668.84;;;12.52;100.00
24858;BME280;12935;50.782;6.074;2024-02-15T01:50:52;99675.91;;;12.53;100.00
24858;BME280;12935;50.782;6.074;2024-02-15T01:53:19;99667.31;;;12.48;100.00
24858;BME280;12935;50.782;6.074;2024-02-15T01:55:44;99668.13;;;12.45;100.00
24858;BME280;12935;50.782;6.074;2024-02-15T01:58:10;99665.75;;;12.50;100.00
24858;BME280;12935;50.782;6.074;2024-02-15T02:00:36;99659.94;;;12.41;100.00
24858;BME280;12935;50.782;6.074;2024-02-15T02:03:05;99642.34;;;12.35;100.00
24858;BME280;12935;50.782;6.074;2024-02-15T02:05:31;99659.88;;;12.45;100.00
24858;BME280;12935;50.782;6.074;2024-02-15T02:07:56;99654.78;;;12.47;100.00
24858;BME280;12935;50.782;6.074;2024-02-15T02:10:25;99648.88;;;12.52;100.00
24858;BME280;12935;50.782;6.074;2024-02-15T02:12:52;99636.38;;;12.51;100.00
24858;BME280;12935;50.782;6.074;2024-02-15T02:15:18;99633.16;;;12.59;100.00
24858;BME280;12935;50.782;6.074;2024-02-15T02:17:48;99628.84;;;12.62;100.00
24858;BME280;12935;50.782;6.074;2024-02-15T02:20:14;99631.97;;;12.60;100.00
24858;BME280;12935;50.782;6.074;2024-02-15T02:22:39;99621.84;;;12.57;100.00
24858;BME280;12935;50.782;6.074;2024-02-15T02:25:07;99608.97;;;12.51;100.00
24858;BME280;12935;50.782;6.074;2024-02-15T02:27:36;99613.56;;;12.61;100.00
24858;BME280;12935;50.782;6.074;2024-02-15T02:30:05;99609.66;;;12.62;100.00
24858;BME280;12935;50.782;6.074;2024-02-15T02:32:39;99613.63;;;12.57;100.00
24858;BME280;12935;50.782;6.074;2024-02-15T02:35:04;99618.31;;;12.57;100.00
24858;BME280;12935;50.782;6.074;2024-02-15T02:37:32;99612.38;;;12.62;100.00
24858;BME280;12935;50.782;6.074;2024-02-15T02:40:00;99613.16;;;12.66;100.00
24858;BME280;12935;50.782;6.074;2024-02-15T02:42:26;99615.88;;;12.66;100.00
24858;BME280;12935;50.782;6.074;2024-02-15T02:44:51;99609.59;;;12.69;100.00
24858;BME280;12935;50.782;6.074;2024-02-15T02:47:17;99602.97;;;12.63;100.00
24858;BME280;12935;50.782;6.074;2024-02-15T02:49:42;99603.34;;;12.65;100.00
24858;BME280;12935;50.782;6.074;2024-02-15T02:52:07;99594.44;;;12.54;100.00
24858;BME280;12935;50.782;6.074;2024-02-15T02:54:32;99601.81;;;12.60;100.00
24858;BME280;12935;50.782;6.074;2024-02-15T02:56:58;99600.25;;;12.63;100.00
24858;BME280;12935;50.782;6.074;2024-02-15T02:59:24;99597.94;;;12.58;100.00
24858;BME280;12935;50.782;6.074;2024-02-15T03:01:50;99584.28;;;12.54;100.00
24858;BME280;12935;50.782;6.074;2024-02-15T03:04:16;99580.00;;;12.50;100.00
24858;BME280;12935;50.782;6.074;2024-02-15T03:06:44;99576.13;;;12.44;100.00
24858;BME280;12935;50.782;6.074;2024-02-15T03:09:10;99572.94;;;12.49;100.00
24858;BME280;12935;50.782;6.074;2024-02-15T03:11:36;99583.13;;;12.52;100.00
24858;BME280;12935;50.782;6.074;2024-02-15T03:14:02;99578.09;;;12.43;100.00
24858;BME280;12935;50.782;6.074;2024-02-15T03:16:30;99583.59;;;12.40;100.00
24858;BME280;12935;50.782;6.074;2024-02-15T03:18:55;99576.56;;;12.39;100.00
24858;BME280;12935;50.782;6.074;2024-02-15T03:21:20;99582.81;;;12.39;100.00
24858;BME280;12935;50.782;6.074;2024-02-15T03:23:46;99577.75;;;12.38;100.00
24858;BME280;12935;50.782;6.074;2024-02-15T03:26:11;99582.81;;;12.39;100.00
24858;BME280;12935;50.782;6.074;2024-02-15T03:28:37;99575.38;;;12.40;100.00
24858;BME280;12935;50.782;6.074;2024-02-15T03:31:03;99579.72;;;12.37;100.00
24858;BME280;12935;50.782;6.074;2024-02-15T03:33:28;99576.59;;;12.35;100.00
24858;BME280;12935;50.782;6.074;2024-02-15T03:35:59;99577.34;;;12.39;100.00
24858;BME280;12935;50.782;6.074;2024-02-15T03:38:26;99564.44;;;12.40;100.00
24858;BME280;12935;50.782;6.074;2024-02-15T03:40:52;99564.84;;;12.35;100.00
24858;BME280;12935;50.782;6.074;2024-02-15T03:43:17;99562.88;;;12.35;100.00
24858;BME280;12935;50.782;6.074;2024-02-15T03:45:43;99558.59;;;12.30;100.00
24858;BME280;12935;50.782;6.074;2024-02-15T03:48:09;99552.72;;;12.32;100.00
24858;BME280;12935;50.782;6.074;2024-02-15T03:50:35;99552.72;;;12.32;100.00
24858;BME280;12935;50.782;6.074;2024-02-15T03:53:00;99554.28;;;12.33;100.00
24858;BME280;12935;50.782;6.074;2024-02-15T03:55:25;99559.38;;;12.31;100.00
24858;BME280;12935;50.782;6.074;2024-02-15T03:57:51;99557.44;;;12.32;100.00
24858;BME280;12935;50.782;6.074;2024-02-15T04:00:17;99560.16;;;12.32;100.00
24858;BME280;12935;50.782;6.074;2024-02-15T04:02:46;99557.41;;;12.35;100.00
24858;BME280;12935;50.782;6.074;2024-02-15T04:05:14;99556.25;;;12.33;100.00
24858;BME280;12935;50.782;6.074;2024-02-15T04:07:39;99546.94;;;12.23;100.00
24858;BME280;12935;50.782;6.074;2024-02-15T04:10:05;99553.97;;;12.27;100.00
24858;BME280;12935;50.782;6.074;2024-02-15T04:12:31;99549.59;;;12.30;100.00
24858;BME280;12935;50.782;6.074;2024-02-15T04:14:56;99559.00;;;12.33;100.00
24858;BME280;12935;50.782;6.074;2024-02-15T04:17:29;99545.75;;;12.27;100.00
24858;BME280;12935;50.782;6.074;2024-02-15T04:19:58;99559.38;;;12.31;100.00
24858;BME280;12935;50.782;6.074;2024-02-15T04:22:23;99563.28;;;12.37;100.00
24858;BME280;12935;50.782;6.074;2024-02-15T04:24:48;99562.47;;;12.40;100.00
24858;BME280;12935;50.782;6.074;2024-02-15T04:27:15;99569.88;;;12.43;100.00
24858;BME280;12935;50.782;6.074;2024-02-15T04:29:40;99571.50;;;12.37;100.00
24858;BME280;12935;50.782;6.074;2024-02-15T04:32:10;99573.38;;;12.44;100.00
24858;BME280;12935;50.782;6.074;2024-02-15T04:34:37;99562.88;;;12.35;100.00
24858;BME280;12935;50.782;6.074;2024-02-15T04:37:03;99567.19;;;12.36;100.00
24858;BME280;12935;50.782;6.074;2024-02-15T04:39:32;99566.06;;;12.30;100.00
24858;BME280;12935;50.782;6.074;2024-02-15T04:41:58;99569.13;;;12.39;100.00
24858;BME280;12935;50.782;6.074;2024-02-15T04:44:23;99566.72;;;12.45;100.00
24858;BME280;12935;50.782;6.074;2024-02-15T04:46:52;99566.31;;;12.46;100.00
24858;BME280;12935;50.782;6.074;2024-02-15T04:49:18;99572.94;;;12.49;100.00
24858;BME280;12935;50.782;6.074;2024-02-15T04:51:44;99570.22;;;12.49;100.00
24858;BME280;12935;50.782;6.074;2024-02-15T04:54:10;99569.41;;;12.52;100.00
24858;BME280;12935;50.782;6.074;2024-02-15T04:56:38;99549.53;;;12.41;100.00
24858;BME280;12935;50.782;6.074;2024-02-15T04:59:04;99563.94;;;12.52;100.00
24858;BME280;12935;50.782;6.074;2024-02-15T05:01:30;99564.69;;;12.52;100.00
24858;BME280;12935;50.782;6.074;2024-02-15T05:03:58;99561.59;;;12.50;100.00
24858;BME280;12935;50.782;6.074;2024-02-15T05:06:23;99558.78;;;12.57;100.00
24858;BME280;12935;50.782;6.074;2024-02-15T05:08:49;99557.97;;;12.60;100.00
24858;BME280;12935;50.782;6.074;2024-02-15T05:11:14;99564.31;;;12.54;100.00
24858;BME280;12935;50.782;6.074;2024-02-15T05:13:44;99561.19;;;12.52;100.00
24858;BME280;12935;50.782;6.074;2024-02-15T05:16:15;99558.41;;;12.59;100.00
24858;BME280;12935;50.782;6.074;2024-02-15T05:18:41;99563.09;;;12.58;100.00
24858;BME280;12935;50.782;6.074;2024-02-15T05:21:06;99557.63;;;12.55;100.00
24858;BME280;12935;50.782;6.074;2024-02-15T05:23:38;99548.56;;;12.61;100.00
24858;BME280;12935;50.782;6.074;2024-02-15T05:26:08;99546.19;;;12.63;100.00
24858;BME280;12935;50.782;6.074;2024-02-15T05:28:33;99546.19;;;12.63;100.00
24858;BME280;12935;50.782;6.074;2024-02-15T05:31:19;99530.97;;;12.59;100.00
24858;BME280;12935;50.782;6.074;2024-02-15T05:33:46;99536.88;;;12.57;100.00
24858;BME280;12935;50.782;6.074;2024-02-15T05:36:17;99531.31;;;12.61;100.00
24858;BME280;12935;50.782;6.074;2024-02-15T05:38:46;99529.44;;;12.58;100.00
24858;BME280;12935;50.782;6.074;2024-02-15T05:41:11;99527.88;;;12.57;100.00
24858;BME280;12935;50.782;6.074;2024-02-15T05:43:39;99533.72;;;12.59;100.00
24858;BME280;12935;50.782;6.074;2024-02-15T05:46:07;99536.03;;;12.60;100.00
24858;BME280;12935;50.782;6.074;2024-02-15T05:48:33;99532.09;;;12.61;100.00
24858;BME280;12935;50.782;6.074;2024-02-15T05:51:02;99530.97;;;12.59;100.00
24858;BME280;12935;50.782;6.074;2024-02-15T05:53:28;99526.72;;;12.54;100.00
24858;BME280;12935;50.782;6.074;2024-02-15T05:55:54;99522.38;;;12.57;100.00
24858;BME280;12935;50.782;6.074;2024-02-15T05:58:20;99522.41;;;12.53;100.00
24858;BME280;12935;50.782;6.074;2024-02-15T06:00:45;99523.94;;;12.58;100.00
24858;BME280;12935;50.782;6.074;2024-02-15T06:03:15;99515.66;;;12.61;100.00
24858;BME280;12935;50.782;6.074;2024-02-15T06:05:40;99518.81;;;12.60;100.00
24858;BME280;12935;50.782;6.074;2024-02-15T06:08:06;99512.91;;;12.61;100.00
24858;BME280;12935;50.782;6.074;2024-02-15T06:10:31;99515.25;;;12.63;100.00
24858;BME280;12935;50.782;6.074;2024-02-15T06:12:57;99513.69;;;12.62;100.00
24858;BME280;12935;50.782;6.074;2024-02-15T06:15:24;99511.78;;;12.59;100.00
24858;BME280;12935;50.782;6.074;2024-02-15T06:17:49;99507.84;;;12.60;100.00
24858;BME280;12935;50.782;6.074;2024-02-15T06:20:15;99505.97;;;12.53;100.00
24858;BME280;12935;50.782;6.074;2024-02-15T06:22:43;99508.34;;;12.51;100.00
24858;BME280;12935;50.782;6.074;2024-02-15T06:25:10;99507.50;;;12.58;100.00
24858;BME280;12935;50.782;6.074;2024-02-15T06:27:39;99509.78;;;12.63;100.00
24858;BME280;12935;50.782;6.074;2024-02-15T06:30:11;99505.09;;;12.60;100.00
24858;BME280;12935;50.782;6.074;2024-02-15T06:32:55;99516.03;;;12.63;100.00
24858;BME280;12935;50.782;6.074;2024-02-15T06:35:40;99512.53;;;12.59;100.00
24858;BME280;12935;50.782;6.074;2024-02-15T06:38:23;99511.03;;;12.58;100.00
24858;BME280;12935;50.782;6.074;2024-02-15T06:41:24;99518.78;;;12.63;100.00
24858;BME280;12935;50.782;6.074;2024-02-15T06:43:50;99517.19;;;12.66;100.00
24858;BME280;12935;50.782;6.074;2024-02-15T06:46:15;99524.25;;;12.63;100.00
24858;BME280;12935;50.782;6.074;2024-02-15T06:48:43;99517.19;;;12.66;100.00
24858;BME280;12935;50.782;6.074;2024-02-15T06:51:12;99514.06;;;12.64;100.00
24858;BME280;12935;50.782;6.074;2024-02-15T06:53:39;99510.94;;;12.65;100.00
24858;BME280;12935;50.782;6.074;2024-02-15T06:56:05;99512.88;;;12.65;100.00
24858;BME280;12935;50.782;6.074;2024-02-15T06:58:30;99514.06;;;12.64;100.00
24858;BME280;12935;50.782;6.074;2024-02-15T07:00:56;99503.91;;;12.61;100.00
24858;BME280;12935;50.782;6.074;2024-02-15T07:03:21;99507.03;;;12.63;100.00
24858;BME280;12935;50.782;6.074;2024-02-15T07:05:47;99507.00;;;12.67;100.00
24858;BME280;12935;50.782;6.074;2024-02-15T07:08:13;99494.50;;;12.62;100.00
24858;BME280;12935;50.782;6.074;2024-02-15T07:10:39;99514.03;;;12.68;100.00
24858;BME280;12935;50.782;6.074;2024-02-15T07:13:05;99510.53;;;12.67;100.00
24858;BME280;12935;50.782;6.074;2024-02-15T07:15:33;99515.63;;;12.65;100.00
24858;BME280;12935;50.782;6.074;2024-02-15T07:18:06;99521.91;;;12.62;100.00
24858;BME280;12935;50.782;6.074;2024-02-15T07:20:34;99504.66;;;12.65;100.00
24858;BME280;12935;50.782;6.074;2024-02-15T07:22:59;99507.03;;;12.63;100.00
24858;BME280;12935;50.782;6.074;2024-02-15T07:25:25;99515.56;;;12.72;100.00
24858;BME280;12935;50.782;6.074;2024-02-15T07:27:50;99514.00;;;12.71;100.00
24858;BME280;12935;50.782;6.074;2024-02-15T07:30:17;99508.50;;;12.75;100.00
24858;BME280;12935;50.782;6.074;2024-02-15T07:32:43;99517.16;;;12.70;100.00
24858;BME280;12935;50.782;6.074;2024-02-15T07:35:08;99516.34;;;12.73;100.00
24858;BME280;12935;50.782;6.074;2024-02-15T07:37:34;99519.03;;;12.76;100.00
24858;BME280;12935;50.782;6.074;2024-02-15T07:40:00;99522.16;;;12.78;100.00
24858;BME280;12935;50.782;6.074;2024-02-15T07:42:25;99519.38;;;12.82;100.00
24858;BME280;12935;50.782;6.074;2024-02-15T07:44:51;99524.84;;;12.85;100.00
24858;BME280;12935;50.782;6.074;2024-02-15T07:47:18;99517.78;;;12.84;100.00
24858;BME280;12935;50.782;6.074;2024-02-15T07:49:45;99525.56;;;12.89;100.00
24858;BME280;12935;50.782;6.074;2024-02-15T07:52:11;99515.31;;;12.93;100.00
24858;BME280;12935;50.782;6.074;2024-02-15T07:54:36;99519.25;;;12.92;100.00
24858;BME280;12935;50.782;6.074;2024-02-15T07:57:02;99514.06;;;13.02;100.00
24858;BME280;12935;50.782;6.074;2024-02-15T07:59:27;99516.00;;;13.05;100.00
24858;BME280;12935;50.782;6.074;2024-02-15T08:01:53;99513.56;;;13.10;100.00
24858;BME280;12935;50.782;6.074;2024-02-15T08:04:19;99513.53;;;13.17;100.00
24858;BME280;12935;50.782;6.074;2024-02-15T08:06:46;99526.78;;;13.22;100.00
24858;BME280;12935;50.782;6.074;2024-02-15T08:09:15;99510.69;;;13.24;100.00
24858;BME280;12935;50.782;6.074;2024-02-15T08:11:43;99517.19;;;13.38;100.00
24858;BME280;12935;50.782;6.074;2024-02-15T08:14:08;99520.25;;;13.43;100.00
24858;BME280;12935;50.782;6.074;2024-02-15T08:16:36;99522.22;;;13.43;100.00
24858;BME280;12935;50.782;6.074;2024-02-15T08:19:02;99511.97;;;13.47;100.00
24858;BME280;12935;50.782;6.074;2024-02-15T08:21:31;99513.94;;;13.46;100.00
24858;BME280;12935;50.782;6.074;2024-02-15T08:23:59;99509.72;;;13.38;100.00
24858;BME280;12935;50.782;6.074;2024-02-15T08:26:26;99510.00;;;13.47;100.00
24858;BME280;12935;50.782;6.074;2024-02-15T08:28:51;99506.31;;;13.57;100.00
24858;BME280;12935;50.782;6.074;2024-02-15T08:31:17;99517.22;;;13.64;100.00
24858;BME280;12935;50.782;6.074;2024-02-15T08:33:44;99508.56;;;13.66;100.00
24858;BME280;12935;50.782;6.074;2024-02-15T08:36:11;99506.53;;;13.70;100.00
24858;BME280;12935;50.782;6.074;2024-02-15T08:38:36;99498.63;;;13.76;100.00
24858;BME280;12935;50.782;6.074;2024-02-15T08:41:06;99493.91;;;13.76;100.00
24858;BME280;12935;50.782;6.074;2024-02-15T08:43:33;99485.97;;;13.82;100.00
24858;BME280;12935;50.782;6.074;2024-02-15T08:45:58;99490.94;;;13.90;100.00
24858;BME280;12935;50.782;6.074;2024-02-15T08:48:24;99490.47;;;13.95;100.00
24858;BME280;12935;50.782;6.074;2024-02-15T08:50:51;99487.38;;;13.93;100.00
24858;BME280;12935;50.782;6.074;2024-02-15T08:53:16;99486.81;;;14.02;100.00
24858;BME280;12935;50.782;6.074;2024-02-15T08:55:44;99491.06;;;14.07;100.00
24858;BME280;12935;50.782;6.074;2024-02-15T08:58:09;99480.50;;;14.05;100.00
24858;BME280;12935;50.782;6.074;2024-02-15T09:00:35;99483.94;;;14.13;100.00
24858;BME280;12935;50.782;6.074;2024-02-15T09:03:02;99484.50;;;14.24;100.00
24858;BME280;12935;50.782;6.074;2024-02-15T09:05:27;99491.78;;;14.34;100.00
24858;BME280;12935;50.782;6.074;2024-02-15T09:07:53;99487.41;;;14.40;100.00
24858;BME280;12935;50.782;6.074;2024-02-15T09:10:19;99487.41;;;14.40;100.00
24858;BME280;12935;50.782;6.074;2024-02-15T09:12:47;99489.97;;;14.51;100.00
24858;BME280;12935;50.782;6.074;2024-02-15T09:15:14;99485.06;;;14.62;100.00
24858;BME280;12935;50.782;6.074;2024-02-15T09:17:40;99488.38;;;14.73;100.00
24858;BME280;12935;50.782;6.074;2024-02-15T09:20:11;99492.25;;;14.76;100.00
24858;BME280;12935;50.782;6.074;2024-02-15T09:22:51;99493.66;;;14.84;100.00
24858;BME280;12935;50.782;6.074;2024-02-15T09:25:17;99482.66;;;14.84;100.00
24858;BME280;12935;50.782;6.074;2024-02-15T09:27:43;99494.88;;;14.83;100.00
24858;BME280;12935;50.782;6.074;2024-02-15T09:30:09;99500.25;;;14.90;100.00
24858;BME280;12935;50.782;6.074;2024-02-15T09:32:39;99497.63;;;15.02;100.00
24858;BME280;12935;50.782;6.074;2024-02-15T09:35:05;99495.59;;;15.06;100.00
24858;BME280;12935;50.782;6.074;2024-02-15T09:37:37;99492.69;;;15.14;100.00
24858;BME280;12935;50.782;6.074;2024-02-15T09:40:07;99491.72;;;15.04;100.00
24858;BME280;12935;50.782;6.074;2024-02-15T09:42:34;99494.03;;;15.05;100.00
24858;BME280;12935;50.782;6.074;2024-02-15T09:45:01;99485.84;;;15.02;100.00
24858;BME280;12935;50.782;6.074;2024-02-15T09:47:34;99493.69;;;15.23;100.00
24858;BME280;12935;50.782;6.074;2024-02-15T09:50:00;99493.50;;;15.30;100.00
24858;BME280;12935;50.782;6.074;2024-02-15T09:52:25;99494.16;;;15.38;100.00
24858;BME280;12935;50.782;6.074;2024-02-15T09:54:51;99492.59;;;15.37;100.00
24858;BME280;12935;50.782;6.074;2024-02-15T09:57:17;99496.13;;;15.57;100.00
24858;BME280;12935;50.782;6.074;2024-02-15T09:59:43;99494.34;;;15.67;100.00
24858;BME280;12935;50.782;6.074;2024-02-15T10:02:09;99491.84;;;15.72;100.00
24858;BME280;12935;50.782;6.074;2024-02-15T10:04:37;99484.34;;;15.57;100.00
24858;BME280;12935;50.782;6.074;2024-02-15T10:07:03;99493.19;;;15.64;100.00
24858;BME280;12935;50.782;6.074;2024-02-15T10:09:29;99485.38;;;15.79;100.00
24858;BME280;12935;50.782;6.074;2024-02-15T10:11:57;99486.94;;;15.80;100.00
24858;BME280;12935;50.782;6.074;2024-02-15T10:14:26;99471.38;;;15.73;100.00
24858;BME280;12935;50.782;6.074;2024-02-15T10:16:53;99481.28;;;15.87;100.00
24858;BME280;12935;50.782;6.074;2024-02-15T10:19:20;99483.16;;;15.90;100.00
24858;BME280;12935;50.782;6.074;2024-02-15T10:21:51;99486.03;;;16.03;100.00
24858;BME280;12935;50.782;6.074;2024-02-15T10:24:18;99489.91;;;16.05;100.00
24858;BME280;12935;50.782;6.074;2024-02-15T10:26:45;99478.53;;;16.03;100.00
24858;BME280;12935;50.782;6.074;2024-02-15T10:29:13;99486.38;;;16.05;100.00
24858;BME280;12935;50.782;6.074;2024-02-15T10:31:54;99484.19;;;16.12;99.73
24858;BME280;12935;50.782;6.074;2024-02-15T10:34:20;99483.63;;;16.05;99.07
24858;BME280;12935;50.782;6.074;2024-02-15T10:36:46;99473.50;;;16.14;100.00
24858;BME280;12935;50.782;6.074;2024-02-15T10:39:16;99484.13;;;16.16;100.00
24858;BME280;12935;50.782;6.074;2024-02-15T10:41:50;99472.31;;;16.32;100.00
24858;BME280;12935;50.782;6.074;2024-02-15T10:44:20;99469.19;;;16.30;100.00
24858;BME280;12935;50.782;6.074;2024-02-15T10:46:47;99472.38;;;16.28;98.52
24858;BME280;12935;50.782;6.074;2024-02-15T10:49:17;99477.53;;;16.42;100.00
24858;BME280;12935;50.782;6.074;2024-02-15T10:51:43;99468.88;;;16.57;97.36
24858;BME280;12935;50.782;6.074;2024-02-15T10:54:12;99465.69;;;16.58;96.81
24858;BME280;12935;50.782;6.074;2024-02-15T10:56:44;99474.81;;;16.55;96.29
24858;BME280;12935;50.782;6.074;2024-02-15T10:59:19;99471.72;;;16.53;95.70
24858;BME280;12935;50.782;6.074;2024-02-15T11:01:49;99471.28;;;16.55;96.11
24858;BME280;12935;50.782;6.074;2024-02-15T11:04:20;99468.09;;;16.56;94.53
24858;BME280;12935;50.782;6.074;2024-02-15T11:06:50;99462.84;;;16.62;95.21
24858;BME280;12935;50.782;6.074;2024-02-15T11:09:18;99454.09;;;16.79;95.54
24858;BME280;12935;50.782;6.074;2024-02-15T11:11:44;99446.59;;;16.80;94.01
24858;BME280;12935;50.782;6.074;2024-02-15T11:14:27;99447.16;;;16.88;93.59
24858;BME280;12935;50.782;6.074;2024-02-15T11:16:57;99445.28;;;16.84;92.81
24858;BME280;12935;50.782;6.074;2024-02-15T11:22:01;99445.19;;;16.88;94.87
24858;BME280;12935;50.782;6.074;2024-02-15T11:24:32;99440.69;;;17.07;93.99
24858;BME280;12935;50.782;6.074;2024-02-15T11:27:01;99419.88;;;17.31;92.97
24858;BME280;12935;50.782;6.074;2024-02-15T11:35:13;99425.38;;;17.82;85.59
24858;BME280;12935;50.782;6.074;2024-02-15T11:40:13;99423.19;;;17.64;86.14
24858;BME280;12935;50.782;6.074;2024-02-15T11:42:39;99417.78;;;17.61;86.41
24858;BME280;12935;50.782;6.074;2024-02-15T11:45:06;99419.75;;;17.47;87.45
24858;BME280;12935;50.782;6.074;2024-02-15T11:47:36;99412.47;;;17.41;87.54
24858;BME280;12935;50.782;6.074;2024-02-15T11:50:02;99411.78;;;17.37;86.24
24858;BME280;12935;50.782;6.074;2024-02-15T11:52:30;99404.94;;;17.29;86.82
24858;BME280;12935;50.782;6.074;2024-02-15T11:55:04;99402.94;;;17.04;88.91
24858;BME280;12935;50.782;6.074;2024-02-15T11:57:30;99389.47;;;17.06;90.63
24858;BME280;12935;50.782;6.074;2024-02-15T12:00:05;99399.72;;;17.05;89.27
24858;BME280;12935;50.782;6.074;2024-02-15T12:02:49;99391.69;;;17.11;89.81
24858;BME280;12935;50.782;6.074;2024-02-15T12:05:33;99391.88;;;17.04;88.84
24858;BME280;12935;50.782;6.074;2024-02-15T12:08:17;99385.81;;;16.83;90.72
24858;BME280;12935;50.782;6.074;2024-02-15T12:11:01;99366.25;;;16.91;90.59
24858;BME280;12935;50.782;6.074;2024-02-15T12:13:51;99382.38;;;16.92;90.63
24858;BME280;12935;50.782;6.074;2024-02-15T12:16:36;99376.09;;;16.92;89.67
24858;BME280;12935;50.782;6.074;2024-02-15T12:19:20;99350.13;;;16.89;90.13
24858;BME280;12935;50.782;6.074;2024-02-15T12:21:47;99365.81;;;17.05;89.25
24858;BME280;12935;50.782;6.074;2024-02-15T12:24:13;99351.91;;;17.21;90.84
24858;BME280;12935;50.782;6.074;2024-02-15T12:26:39;99349.16;;;17.34;88.76
24858;BME280;12935;50.782;6.074;2024-02-15T12:29:06;99353.13;;;17.20;88.31
24858;BME280;12935;50.782;6.074;2024-02-15T12:31:35;99356.00;;;17.04;88.40
24858;BME280;12935;50.782;6.074;2024-02-15T12:34:04;99351.38;;;17.13;87.74
24858;BME280;12935;50.782;6.074;2024-02-15T12:36:36;99349.41;;;17.14;87.10
24858;BME280;12935;50.782;6.074;2024-02-15T12:39:03;99350.59;;;17.13;87.92
24858;BME280;12935;50.782;6.074;2024-02-15T12:41:37;99340.09;;;17.21;87.89
24858;BME280;12935;50.782;6.074;2024-02-15T12:44:03;99334.69;;;17.30;87.92
24858;BME280;12935;50.782;6.074;2024-02-15T12:46:29;99329.38;;;17.35;87.22
24858;BME280;12935;50.782;6.074;2024-02-15T12:49:28;99330.91;;;17.36;86.05
24858;BME280;12935;50.782;6.074;2024-02-15T12:51:54;99314.03;;;17.22;85.39
24858;BME280;12935;50.782;6.074;2024-02-15T12:54:39;99312.59;;;17.30;87.54
24858;BME280;12935;50.782;6.074;2024-02-15T12:57:08;99311.69;;;17.33;86.00
24858;BME280;12935;50.782;6.074;2024-02-15T12:59:35;99308.19;;;17.19;84.93
24858;BME280;12935;50.782;6.074;2024-02-15T13:02:01;99303.53;;;17.16;86.13
24858;BME280;12935;50.782;6.074;2024-02-15T13:04:27;99304.88;;;17.12;86.05
24858;BME280;12935;50.782;6.074;2024-02-15T13:06:54;99300.13;;;16.87;85.90